Time;durP1;ratioP1;P1;durP2;ratioP2;P2;SDS_P1;SDS_P2;PMS_P1;PMS_P2;Temp;Humidity;BMP_temperature;BMP_pressure;BME280_temperature;BME280_humidity;BME280_pressure;Samples;Min_cycle;Max_cycle;Signal;HPM_P1;HPM_P2
2022/04/12 00:01:01;;;;;;;2.07;1.20;;;;;;;9.28;100.00;101579.75;5019825;28;20458;-75
2022/04/12 00:03:27;;;;;;;2.43;1.50;;;;;;;9.31;100.00;101578.59;5017071;28;20474;-75
2022/04/12 00:05:53;;;;;;;2.33;1.40;;;;;;;9.32;100.00;101570.41;5020479;28;20447;-76
2022/04/12 00:08:19;;;;;;;2.53;1.30;;;;;;;9.16;100.00;101527.63;5020866;28;20833;-76
2022/04/12 00:10:45;;;;;;;2.33;1.27;;;;;;;9.33;100.00;101552.50;5020278;28;20238;-76
2022/04/12 00:13:10;;;;;;;2.20;1.23;;;;;;;9.25;100.00;101588.97;5020547;28;20196;-76
2022/04/12 00:15:36;;;;;;;1.90;1.37;;;;;;;8.94;100.00;101569.31;5022008;28;20444;-75
2022/04/12 00:20:46;;;;;;;2.27;1.60;;;;;;;8.95;100.00;101550.41;5019483;28;20222;-76
2022/04/12 00:23:14;;;;;;;3.57;1.40;;;;;;;9.34;100.00;101551.47;5020880;28;20439;-76
2022/04/12 00:25:42;;;;;;;1.87;1.20;;;;;;;9.31;100.00;101567.88;5017988;28;20283;-76
2022/04/12 00:28:08;;;;;;;1.90;1.30;;;;;;;9.20;100.00;101543.16;5020034;28;20451;-76
2022/04/12 00:30:34;;;;;;;2.20;1.33;;;;;;;9.34;100.00;101536.25;5019499;28;20443;-76
2022/04/12 00:33:00;;;;;;;1.80;1.70;;;;;;;9.09;100.00;101511.41;5018696;28;20188;-76
2022/04/12 00:35:25;;;;;;;2.90;1.40;;;;;;;9.20;100.00;101535.13;5020521;28;20522;-76
2022/04/12 00:37:51;;;;;;;2.00;1.67;;;;;;;9.04;100.00;101527.97;5018918;28;20218;-76
2022/04/12 00:40:18;;;;;;;2.20;1.57;;;;;;;9.12;100.00;101539.69;5019830;28;20191;-77
2022/04/12 00:42:46;;;;;;;1.70;1.40;;;;;;;9.01;100.00;101520.31;5019733;28;20481;-75
2022/04/12 00:45:12;;;;;;;1.90;1.50;;;;;;;9.13;100.00;101498.53;5021066;28;20434;-76
2022/04/12 00:47:39;;;;;;;2.60;1.70;;;;;;;9.04;100.00;101503.06;5018979;28;20529;-76
2022/04/12 00:50:05;;;;;;;3.90;1.50;;;;;;;9.04;100.00;101540.53;5019007;28;20196;-75
2022/04/12 00:52:36;;;;;;;2.23;1.90;;;;;;;9.11;100.00;101535.31;5018269;28;20529;-76
2022/04/12 00:55:03;;;;;;;3.57;1.83;;;;;;;9.03;100.00;101512.94;5023117;28;20439;-75
2022/04/12 00:57:29;;;;;;;2.13;1.50;;;;;;;9.00;100.00;101545.41;5023457;28;20466;-76
2022/04/12 00:59:55;;;;;;;3.17;1.33;;;;;;;9.12;100.00;101553.06;5022581;28;20491;-76
2022/04/12 01:02:21;;;;;;;1.63;1.53;;;;;;;9.22;100.00;101554.50;5023924;28;20886;-76
2022/04/12 01:04:46;;;;;;;2.93;1.93;;;;;;;9.18;100.00;101526.44;5023810;28;20441;-76
2022/04/12 01:07:12;;;;;;;4.83;1.73;;;;;;;8.97;100.00;101507.47;5022714;28;20204;-76
2022/04/12 01:09:37;;;;;;;3.17;2.27;;;;;;;9.02;100.00;101507.75;5026351;28;20199;-76
2022/04/12 01:12:09;;;;;;;1.83;1.50;;;;;;;8.98;100.00;101528.66;5021856;28;20181;-76
2022/04/12 01:14:35;;;;;;;2.50;1.40;;;;;;;9.10;100.00;101523.78;5026593;28;20189;-75
2022/04/12 01:17:04;;;;;;;3.17;1.40;;;;;;;9.16;100.00;101525.78;5023084;28;20847;-75
2022/04/12 01:19:29;;;;;;;1.73;1.63;;;;;;;9.24;100.00;101531.09;5022732;28;20196;-76
2022/04/12 01:22:01;;;;;;;5.53;1.70;;;;;;;9.39;100.00;101533.06;5025029;28;20436;-76
2022/04/12 01:24:28;;;;;;;1.33;1.23;;;;;;;9.20;100.00;101535.13;5024295;28;20331;-76
2022/04/12 01:26:54;;;;;;;4.03;2.07;;;;;;;9.11;100.00;101538.81;5026311;28;21004;-76
2022/04/12 01:29:19;;;;;;;3.10;2.03;;;;;;;9.17;100.00;101505.19;5027819;28;20521;-76
2022/04/12 01:31:45;;;;;;;1.93;1.60;;;;;;;9.32;100.00;101503.47;5027899;28;20455;-77
2022/04/12 01:34:11;;;;;;;4.07;1.93;;;;;;;9.31;100.00;101525.03;5021758;28;20613;-76
2022/04/12 01:36:36;;;;;;;3.00;2.37;;;;;;;9.23;100.00;101532.13;5023262;28;20474;-76
2022/04/12 01:39:02;;;;;;;1.90;1.70;;;;;;;9.25;100.00;101527.41;5025052;28;20185;-76
2022/04/12 01:41:28;;;;;;;3.27;1.93;;;;;;;9.33;100.00;101541.78;5024441;28;20622;-75
2022/04/12 01:43:53;;;;;;;2.13;1.60;;;;;;;9.10;100.00;101509.56;5023818;28;20184;-74
2022/04/12 01:46:18;;;;;;;2.00;1.70;;;;;;;9.02;100.00;101508.56;5024448;28;20186;-75
2022/04/12 01:48:44;;;;;;;2.47;1.53;;;;;;;9.13;100.00;101491.31;5024396;28;20792;-76
2022/04/12 01:51:10;;;;;;;2.40;2.07;;;;;;;9.44;100.00;101511.94;5022847;28;20674;-75
2022/04/12 01:53:37;;;;;;;2.00;1.80;;;;;;;9.43;100.00;101497.72;5023802;28;20470;-75
2022/04/12 01:56:02;;;;;;;2.20;2.00;;;;;;;9.22;100.00;101470.72;5025021;28;20184;-76
2022/04/12 01:58:28;;;;;;;3.50;2.50;;;;;;;9.19;100.00;101460.34;5023844;28;20474;-75
2022/04/12 02:00:53;;;;;;;2.90;2.10;;;;;;;9.10;100.00;101448.84;5023517;28;20642;-76
2022/04/12 02:03:20;;;;;;;2.10;1.83;;;;;;;8.98;100.00;101472.47;5022922;28;20258;-75
2022/04/12 02:05:47;;;;;;;3.27;2.40;;;;;;;8.94;100.00;101464.97;5023189;28;20184;-76
2022/04/12 02:08:12;;;;;;;3.67;2.03;;;;;;;9.18;100.00;101485.47;5022271;28;20533;-76
2022/04/12 02:10:37;;;;;;;2.57;1.90;;;;;;;9.18;100.00;101472.09;5020378;28;20569;-77
2022/04/12 02:13:03;;;;;;;2.60;2.30;;;;;;;9.32;100.00;101467.84;5025341;28;20199;-76
2022/04/12 02:15:28;;;;;;;4.73;2.50;;;;;;;9.09;100.00;101465.09;5024087;28;20516;-77
2022/04/12 02:17:53;;;;;;;2.87;2.03;;;;;;;9.13;100.00;101467.22;5023015;28;20212;-77
2022/04/12 02:20:19;;;;;;;2.90;2.30;;;;;;;8.99;100.00;101451.91;5020526;28;20177;-77
2022/04/12 02:22:44;;;;;;;2.10;1.90;;;;;;;9.13;100.00;101437.78;5025810;28;20195;-76
2022/04/12 02:25:10;;;;;;;3.87;2.53;;;;;;;9.12;100.00;101420.09;5023486;28;20227;-76
2022/04/12 02:27:35;;;;;;;4.80;2.67;;;;;;;9.05;100.00;101416.41;5024326;28;20660;-77
2022/04/12 02:30:00;;;;;;;3.50;2.50;;;;;;;9.34;100.00;101450.56;5025727;28;20271;-76
2022/04/12 02:32:26;;;;;;;4.43;2.47;;;;;;;8.87;100.00;101411.31;5022098;28;20247;-76
2022/04/12 02:34:51;;;;;;;6.13;2.40;;;;;;;9.09;100.00;101441.84;5019934;28;20212;-76
2022/04/12 02:37:17;;;;;;;2.73;2.13;;;;;;;9.22;100.00;101441.25;5019136;28;20270;-77
2022/04/12 02:39:42;;;;;;;3.33;2.50;;;;;;;9.06;100.00;101455.56;5024666;28;20670;-77
2022/04/12 02:42:08;;;;;;;3.90;2.73;;;;;;;9.17;100.00;101447.16;5022774;28;20193;-76
2022/04/12 02:44:33;;;;;;;2.40;2.20;;;;;;;9.17;100.00;101440.94;5021792;28;20193;-76
2022/04/12 02:46:58;;;;;;;2.50;2.30;;;;;;;9.26;100.00;101442.59;5037060;28;20204;-76
2022/04/12 02:49:24;;;;;;;4.27;2.57;;;;;;;8.90;100.00;101408.28;5022208;28;20655;-77
2022/04/12 02:51:51;;;;;;;3.00;2.60;;;;;;;9.21;100.00;101445.78;5019936;28;20200;-76
2022/04/12 02:54:17;;;;;;;3.33;2.33;;;;;;;9.22;100.00;101442.09;5019576;28;20181;-77
2022/04/12 02:56:42;;;;;;;5.00;2.70;;;;;;;9.16;100.00;101437.44;5021041;28;20864;-76
2022/04/12 02:59:08;;;;;;;4.37;2.67;;;;;;;8.96;100.00;101444.22;5020715;28;20279;-77
2022/04/12 03:01:34;;;;;;;5.63;2.70;;;;;;;8.62;100.00;101377.66;5023013;28;20180;-77
2022/04/12 03:03:59;;;;;;;4.07;2.60;;;;;;;9.03;100.00;101435.34;5019624;28;20192;-77
2022/04/12 03:06:25;;;;;;;3.97;3.00;;;;;;;9.22;100.00;101434.06;5020270;28;22563;-76
2022/04/12 03:08:50;;;;;;;3.37;2.40;;;;;;;8.95;100.00;101434.53;5020714;28;20201;-76
2022/04/12 03:11:16;;;;;;;2.73;2.50;;;;;;;8.62;100.00;101374.97;5022102;28;20212;-77
2022/04/12 03:13:41;;;;;;;2.57;2.33;;;;;;;8.55;100.00;101401.56;5019802;28;20196;-76
2022/04/12 03:16:06;;;;;;;6.50;3.00;;;;;;;8.48;100.00;101384.56;5020418;28;20224;-76
2022/04/12 03:18:32;;;;;;;4.20;2.87;;;;;;;8.52;100.00;101394.72;5019839;28;20219;-76
2022/04/12 03:20:57;;;;;;;3.10;2.73;;;;;;;8.54;100.00;101379.34;5021020;28;20188;-77
2022/04/12 03:23:23;;;;;;;4.53;2.80;;;;;;;9.07;100.00;101425.13;5023005;28;20184;-77
2022/04/12 03:25:50;;;;;;;3.50;3.00;;;;;;;8.89;100.00;101406.63;5020909;28;20621;-76
2022/04/12 03:28:16;;;;;;;6.00;2.97;;;;;;;8.78;100.00;101374.91;5021519;28;20218;-76
2022/04/12 03:30:41;;;;;;;3.80;2.80;;;;;;;9.04;100.00;101437.00;5021190;28;20936;-76
2022/04/12 03:33:06;;;;;;;5.30;2.87;;;;;;;8.68;100.00;101412.56;5021164;28;20188;-77
2022/04/12 03:35:32;;;;;;;3.73;3.37;;;;;;;8.64;100.00;101389.00;5023237;28;20184;-77
2022/04/12 03:38:01;;;;;;;2.73;2.53;;;;;;;9.20;100.00;101453.97;5019868;28;20215;-77
2022/04/12 03:40:33;;;;;;;3.47;3.00;;;;;;;9.25;100.00;101456.97;5021119;28;20188;-77
2022/04/12 03:43:06;;;;;;;4.17;2.70;;;;;;;9.11;100.00;101463.88;5018718;28;20449;-77
2022/04/12 03:45:32;;;;;;;3.27;2.97;;;;;;;9.18;100.00;101464.06;5018103;28;20444;-77
2022/04/12 03:47:58;;;;;;;3.07;2.73;;;;;;;8.75;100.00;101442.13;5022103;28;20952;-77
2022/04/12 03:50:23;;;;;;;3.70;2.63;;;;;;;8.91;100.00;101454.59;5005583;28;20450;-76
2022/04/12 03:52:50;;;;;;;3.40;3.07;;;;;;;8.90;100.00;101451.09;5020747;28;20195;-77
2022/04/12 03:55:30;;;;;;;5.40;2.67;;;;;;;9.20;100.00;101444.13;5019634;28;20438;-77
2022/04/12 03:57:55;;;;;;;2.97;2.67;;;;;;;8.77;100.00;101402.69;5021112;28;20478;-77
2022/04/12 04:00:21;;;;;;;4.87;3.03;;;;;;;8.66;100.00;101409.22;5020929;28;20478;-77
2022/04/12 04:02:46;;;;;;;7.53;3.23;;;;;;;8.89;100.00;101443.25;5020066;28;20200;-77
2022/04/12 04:05:11;;;;;;;4.60;2.90;;;;;;;8.87;100.00;101437.25;5019515;28;20658;-77
2022/04/12 04:07:37;;;;;;;5.10;3.07;;;;;;;8.95;100.00;101448.75;5021802;28;20588;-78
2022/04/12 04:10:02;;;;;;;3.53;3.23;;;;;;;8.95;100.00;101431.88;5018335;28;20320;-77
2022/04/12 04:12:28;;;;;;;4.10;3.13;;;;;;;8.65;100.00;101433.47;5034009;28;20688;-76
2022/04/12 04:14:53;;;;;;;4.20;3.47;;;;;;;8.36;100.00;101379.56;5020920;28;20181;-77
2022/04/12 04:17:18;;;;;;;4.70;3.60;;;;;;;8.74;100.00;101427.09;5033870;22;20239;-78
2022/04/12 04:19:44;;;;;;;4.80;2.70;;;;;;;8.83;100.00;101434.91;5039865;28;20187;-78
2022/04/12 04:22:09;;;;;;;4.67;3.23;;;;;;;8.90;100.00;101444.91;5039507;28;20187;-78
2022/04/12 04:24:35;;;;;;;4.70;3.23;;;;;;;8.61;100.00;101422.28;5041499;28;20186;-77
2022/04/12 04:27:00;;;;;;;4.27;3.00;;;;;;;8.75;100.00;101402.00;5039723;28;20185;-78
2022/04/12 04:29:32;;;;;;;3.40;3.10;;;;;;;8.87;100.00;101435.41;5043459;28;20195;-78
2022/04/12 04:31:57;;;;;;;4.63;3.57;;;;;;;8.97;100.00;101433.38;5045826;28;20714;-78
2022/04/12 04:34:23;;;;;;;6.20;3.60;;;;;;;8.76;100.00;101406.34;5044622;28;20603;-78
2022/04/12 04:36:48;;;;;;;5.50;4.07;;;;;;;8.82;100.00;101416.34;5044205;28;20235;-77
2022/04/12 04:39:14;;;;;;;4.20;3.47;;;;;;;8.79;100.00;101417.56;5044236;28;20179;-76
2022/04/12 04:41:40;;;;;;;3.53;3.23;;;;;;;8.85;100.00;101407.16;5043278;28;20207;-76
2022/04/12 04:44:05;;;;;;;4.40;3.57;;;;;;;8.90;100.00;101413.66;5044907;28;20908;-76
2022/04/12 04:46:31;;;;;;;3.80;3.40;;;;;;;9.03;100.00;101413.94;5046589;28;20539;-78
2022/04/12 04:48:56;;;;;;;3.60;3.27;;;;;;;8.91;100.00;101420.69;5043952;28;20653;-79
2022/04/12 04:51:22;;;;;;;4.47;3.60;;;;;;;8.70;100.00;101425.75;5046880;28;20187;-77
2022/04/12 04:53:56;;;;;;;5.60;3.60;;;;;;;8.36;100.00;101370.66;5046130;28;20187;-78
2022/04/12 04:56:21;;;;;;;3.50;3.20;;;;;;;8.79;100.00;101419.38;5045626;28;20175;-78
2022/04/12 04:58:47;;;;;;;3.70;3.23;;;;;;;8.87;100.00;101427.38;5044533;28;20449;-78
2022/04/12 05:01:12;;;;;;;3.97;3.30;;;;;;;8.74;100.00;101411.06;5047889;28;20246;-78
2022/04/12 05:03:37;;;;;;;5.53;3.80;;;;;;;8.92;100.00;101426.88;5045480;28;20681;-78
2022/04/12 05:06:03;;;;;;;4.67;3.87;;;;;;;8.87;100.00;101439.91;5046798;28;20211;-78
2022/04/12 05:08:28;;;;;;;4.53;4.00;;;;;;;8.55;100.00;101414.94;5042940;28;20202;-78
2022/04/12 05:10:53;;;;;;;4.53;3.43;;;;;;;8.88;100.00;101418.34;5046268;28;20192;-78
2022/04/12 05:13:19;;;;;;;4.33;3.57;;;;;;;8.98;100.00;101426.16;5047461;28;20186;-79
2022/04/12 05:15:44;;;;;;;4.03;3.63;;;;;;;9.01;100.00;101423.97;5041529;28;20188;-78
2022/04/12 05:18:09;;;;;;;5.53;4.10;;;;;;;8.79;100.00;101414.88;5037659;28;20228;-78
2022/04/12 05:20:35;;;;;;;5.93;3.70;;;;;;;8.90;100.00;101437.72;5039597;28;20188;-78
2022/04/12 05:23:01;;;;;;;3.90;3.17;;;;;;;8.80;100.00;101431.75;5041954;28;20658;-78
2022/04/12 05:25:27;;;;;;;5.67;4.40;;;;;;;8.69;100.00;101440.97;5042318;28;20192;-79
2022/04/12 05:27:52;;;;;;;4.57;3.80;;;;;;;8.64;100.00;101442.50;5043025;28;20584;-78
2022/04/12 05:30:18;;;;;;;4.27;3.53;;;;;;;8.60;100.00;101455.38;5041641;28;20200;-78
2022/04/12 05:32:44;;;;;;;4.70;3.50;;;;;;;8.49;100.00;101440.53;5046027;28;20197;-78
2022/04/12 05:35:11;;;;;;;5.80;4.17;;;;;;;8.60;100.00;101464.22;5039560;28;20191;-78
2022/04/12 05:37:46;;;;;;;4.70;3.60;;;;;;;8.75;100.00;101463.53;5048397;28;20469;-78
2022/04/12 05:40:13;;;;;;;5.93;4.47;;;;;;;8.69;100.00;101448.16;5043629;28;20877;-79
2022/04/12 05:42:39;;;;;;;5.73;4.10;;;;;;;8.60;100.00;101412.59;5042860;28;20533;-78
2022/04/12 05:45:09;;;;;;;6.87;4.50;;;;;;;8.67;100.00;101447.50;5041219;28;20458;-78
2022/04/12 05:47:41;;;;;;;6.13;4.50;;;;;;;8.66;100.00;101467.25;5044293;28;20545;-78
2022/04/12 05:50:08;;;;;;;8.00;4.47;;;;;;;8.91;100.00;101462.63;5043784;28;20449;-78
2022/04/12 05:52:33;;;;;;;5.30;4.43;;;;;;;8.53;100.00;101433.84;5040943;28;20818;-78
2022/04/12 05:54:58;;;;;;;8.83;5.17;;;;;;;8.42;100.00;101438.69;5039981;28;20437;-78
2022/04/12 05:57:24;;;;;;;5.30;4.63;;;;;;;8.68;100.00;101457.19;5039937;28;20289;-78
2022/04/12 05:59:49;;;;;;;5.93;4.00;;;;;;;8.45;100.00;101443.72;5040243;28;20189;-78
2022/04/12 06:02:14;;;;;;;7.50;3.87;;;;;;;8.44;100.00;101440.19;5040668;28;20196;-78
2022/04/12 06:04:42;;;;;;;5.77;4.07;;;;;;;8.54;100.00;101440.84;5042665;28;20238;-78
2022/04/12 06:07:07;;;;;;;6.37;4.67;;;;;;;8.71;100.00;101447.00;5040059;22;20710;-78
2022/04/12 06:09:33;;;;;;;6.57;3.83;;;;;;;8.83;100.00;101463.50;5027039;28;20470;-78
2022/04/12 06:11:58;;;;;;;8.03;3.90;;;;;;;8.88;100.00;101455.81;5024475;28;20194;-83
2022/04/12 06:14:23;;;;;;;7.40;3.93;;;;;;;8.85;100.00;101455.28;5024115;28;20279;-79
2022/04/12 06:16:49;;;;;;;5.70;4.07;;;;;;;8.91;100.00;101438.56;5023245;28;20705;-78
2022/04/12 06:19:14;;;;;;;6.20;4.10;;;;;;;8.72;100.00;101421.91;5023645;28;20200;-81
2022/04/12 06:21:40;;;;;;;9.30;4.60;;;;;;;9.00;100.00;101429.50;5021635;28;20261;-81
2022/04/12 06:24:05;;;;;;;5.40;4.07;;;;;;;9.11;100.00;101441.66;5022969;28;20184;-81
2022/04/12 06:26:31;;;;;;;4.37;3.80;;;;;;;9.09;100.00;101419.59;5023714;28;20870;-80
2022/04/12 06:28:56;;;;;;;4.73;3.60;;;;;;;9.34;100.00;101437.19;5025014;28;20290;-76
2022/04/12 06:31:21;;;;;;;4.77;3.90;;;;;;;9.19;100.00;101417.53;5023484;28;20448;-78
2022/04/12 06:33:47;;;;;;;5.43;3.93;;;;;;;9.40;100.00;101439.19;5022757;28;20246;-78
2022/04/12 06:36:12;;;;;;;5.07;4.00;;;;;;;9.37;100.00;101444.03;5021870;28;20579;-78
2022/04/12 06:38:38;;;;;;;5.60;4.00;;;;;;;9.42;100.00;101437.13;5015603;28;22007;-77
2022/04/12 06:41:03;;;;;;;4.10;3.40;;;;;;;9.27;100.00;101374.66;5023724;28;20441;-78
2022/04/12 06:43:28;;;;;;;4.00;3.40;;;;;;;9.67;100.00;101420.91;5026217;28;20189;-79
2022/04/12 06:45:54;;;;;;;4.30;3.70;;;;;;;9.81;100.00;101400.56;5038971;28;20192;-77
2022/04/12 06:48:19;;;;;;;5.60;4.07;;;;;;;9.70;100.00;101396.44;5022402;28;20321;-77
2022/04/12 06:50:45;;;;;;;4.60;4.20;;;;;;;9.79;100.00;101427.53;5023256;28;20195;-78
2022/04/12 06:53:10;;;;;;;4.23;3.00;;;;;;;9.63;100.00;101420.44;5020354;28;20184;-78
2022/04/12 06:55:35;;;;;;;4.00;3.60;;;;;;;9.84;100.00;101421.63;5027012;28;20189;-77
2022/04/12 06:58:01;;;;;;;3.83;3.30;;;;;;;9.76;100.00;101427.06;5021671;28;20580;-77
2022/04/12 07:00:26;;;;;;;5.40;3.33;;;;;;;9.86;100.00;101415.06;5023718;28;20704;-77
2022/04/12 07:02:51;;;;;;;5.37;4.00;;;;;;;9.86;100.00;101409.69;5024918;28;20223;-78
2022/04/12 07:05:17;;;;;;;4.07;3.67;;;;;;;9.87;100.00;101405.19;5021604;28;20192;-78
2022/04/12 07:07:43;;;;;;;4.00;3.47;;;;;;;9.71;100.00;101414.19;5024951;28;20216;-78
2022/04/12 07:10:11;;;;;;;3.73;3.43;;;;;;;9.77;100.00;101401.91;5023528;28;20222;-77
2022/04/12 07:12:38;;;;;;;3.90;3.50;;;;;;;9.84;100.00;101400.19;5025917;28;20239;-81
2022/04/12 07:15:05;;;;;;;5.22;4.03;;;;;;;10.00;100.00;101405.41;5022935;28;20460;-76
2022/04/12 07:17:30;;;;;;;4.70;4.20;;;;;;;10.07;100.00;101401.00;5021177;22;20457;-78
2022/04/12 07:19:55;;;;;;;4.83;3.90;;;;;;;10.04;100.00;101393.31;5020730;28;20238;-77
2022/04/12 07:22:21;;;;;;;4.60;3.70;;;;;;;10.05;100.00;101384.25;5025295;28;20733;-76
2022/04/12 07:24:50;;;;;;;4.03;3.63;;;;;;;10.13;100.00;101384.19;5021692;28;20219;-78
2022/04/12 07:27:15;;;;;;;5.13;4.00;;;;;;;10.25;100.00;101389.94;5018293;28;20290;-76
2022/04/12 07:29:41;;;;;;;4.83;4.33;;;;;;;10.10;100.00;101356.91;5003561;28;20467;-77
2022/04/12 07:32:07;;;;;;;7.93;4.60;;;;;;;10.20;100.00;101357.47;5007628;28;20192;-75
2022/04/12 07:34:32;;;;;;;5.20;3.80;;;;;;;10.21;100.00;101375.22;5003329;28;20443;-76
2022/04/12 07:36:57;;;;;;;4.53;3.83;;;;;;;10.11;100.00;101359.41;5002590;28;20565;-76
2022/04/12 07:39:24;;;;;;;5.50;4.30;;;;;;;10.38;100.00;101382.09;4999884;28;20184;-76
2022/04/12 07:41:51;;;;;;;5.10;3.50;;;;;;;10.35;100.00;101405.78;5007469;28;20180;-76
2022/04/12 07:44:18;;;;;;;8.03;4.50;;;;;;;10.23;100.00;101397.31;5001900;28;20509;-77
2022/04/12 07:46:45;;;;;;;5.40;4.07;;;;;;;10.16;100.00;101407.94;5004496;28;20467;-76
2022/04/12 07:49:11;;;;;;;5.70;3.80;;;;;;;10.30;100.00;101403.66;5002962;28;20546;-75
2022/04/12 07:51:37;;;;;;;5.10;4.17;;;;;;;10.38;100.00;101410.75;5009306;28;20181;-76
2022/04/12 07:54:03;;;;;;;4.70;3.50;;;;;;;10.32;100.00;101411.50;5005972;28;20447;-76
2022/04/12 07:56:29;;;;;;;4.40;3.77;;;;;;;10.30;100.00;101408.16;4999851;28;21115;-76
2022/04/12 07:58:55;;;;;;;4.00;3.43;;;;;;;10.36;100.00;101404.78;5000106;28;20496;-76
2022/04/12 08:01:21;;;;;;;4.80;3.70;;;;;;;10.24;100.00;101374.88;5003337;28;20541;-76
2022/04/12 08:03:47;;;;;;;4.37;3.60;;;;;;;10.53;100.00;101408.94;5005045;28;20177;-76
2022/04/12 08:06:12;;;;;;;3.53;3.00;;;;;;;10.42;100.00;101377.22;4999809;28;20651;-76
2022/04/12 08:08:38;;;;;;;4.63;3.53;;;;;;;10.34;100.00;101370.09;5001299;28;20459;-75
2022/04/12 08:11:04;;;;;;;8.30;4.03;;;;;;;10.29;100.00;101353.72;5008181;28;20194;-76
2022/04/12 08:13:30;;;;;;;4.37;3.97;;;;;;;10.35;100.00;101354.81;5003856;28;20193;-77
2022/04/12 08:15:55;;;;;;;4.27;3.23;;;;;;;10.50;100.00;101363.72;5000401;28;20450;-75
2022/04/12 08:18:21;;;;;;;4.70;3.90;;;;;;;10.75;100.00;101388.38;5003392;28;20295;-74
2022/04/12 08:20:49;;;;;;;5.40;4.37;;;;;;;10.75;100.00;101404.50;5001845;28;20227;-74
2022/04/12 08:23:15;;;;;;;5.30;3.80;;;;;;;10.66;100.00;101373.41;5005149;28;20193;-74
2022/04/12 08:25:41;;;;;;;4.20;3.80;;;;;;;10.86;100.00;101397.81;5003293;28;20530;-76
2022/04/12 08:28:06;;;;;;;3.73;3.20;;;;;;;10.86;100.00;101393.28;5001771;28;20467;-76
2022/04/12 08:30:31;;;;;;;6.07;3.90;;;;;;;10.95;100.00;101391.31;5000085;28;20215;-75
2022/04/12 08:32:57;;;;;;;3.27;2.90;;;;;;;10.99;100.00;101387.25;5002570;28;20545;-75
2022/04/12 08:35:22;;;;;;;5.97;3.90;;;;;;;10.66;100.00;101345.75;5004387;28;20706;-75
2022/04/12 08:37:47;;;;;;;6.57;4.03;;;;;;;11.02;100.00;101386.88;5000759;28;20217;-76
2022/04/12 08:40:14;;;;;;;4.40;3.57;;;;;;;11.07;100.00;101384.44;5003682;28;20244;-75
2022/04/12 08:42:41;;;;;;;8.60;4.17;;;;;;;11.09;100.00;101382.41;5004296;28;20188;-75
2022/04/12 08:45:07;;;;;;;4.40;3.10;;;;;;;11.07;100.00;101371.03;5004326;28;20470;-75
2022/04/12 08:47:34;;;;;;;5.10;3.97;;;;;;;11.20;100.00;101366.84;5005449;28;20539;-75
2022/04/12 08:50:01;;;;;;;4.73;3.67;;;;;;;11.21;100.00;101363.13;5003682;28;20450;-75
2022/04/12 08:52:27;;;;;;;5.50;4.30;;;;;;;11.28;100.00;101358.66;5005758;28;20449;-76
2022/04/12 08:54:53;;;;;;;3.83;3.13;;;;;;;11.32;100.00;101357.25;5003859;28;21025;-75
2022/04/12 08:57:19;;;;;;;4.20;3.70;;;;;;;11.31;100.00;101336.78;5008167;28;20294;-74
2022/04/12 08:59:46;;;;;;;5.27;4.20;;;;;;;11.08;100.00;101297.53;5001646;28;20512;-75
2022/04/12 09:02:12;;;;;;;4.67;3.93;;;;;;;11.37;100.00;101324.44;5004555;28;20185;-78
2022/04/12 09:04:38;;;;;;;4.20;3.73;;;;;;;11.53;100.00;101335.75;4996653;28;20444;-75
2022/04/12 09:07:08;;;;;;;4.63;3.57;;;;;;;11.58;100.00;101329.00;5005695;22;20446;-75
2022/04/12 09:09:33;;;;;;;4.90;4.20;;;;;;;11.59;100.00;101336.84;5019551;28;20200;-76
2022/04/12 09:12:02;;;;;;;4.80;3.83;;;;;;;11.59;100.00;101333.34;5019659;28;20454;-75
2022/04/12 09:14:37;;;;;;;4.93;3.53;;;;;;;11.61;100.00;101337.50;5021644;28;20180;-75
2022/04/12 09:17:04;;;;;;;6.23;4.20;;;;;;;11.65;100.00;101336.06;5020812;28;21357;-74
2022/04/12 09:19:38;;;;;;;5.53;3.70;;;;;;;11.46;100.00;101304.50;5019359;28;20458;-73
2022/04/12 09:22:31;;;;;;;4.30;3.87;;;;;;;11.68;100.00;101324.94;5021414;28;20439;-75
2022/04/12 09:24:59;;;;;;;4.30;3.90;;;;;;;11.55;100.00;101287.22;5022076;28;20462;-74
2022/04/12 09:27:26;;;;;;;5.17;4.47;;;;;;;11.62;100.00;101288.09;5027830;28;20473;-74
2022/04/12 09:29:54;;;;;;;4.37;3.97;;;;;;;11.74;100.00;101308.06;5026978;28;20443;-75
2022/04/12 09:32:25;;;;;;;5.37;3.87;;;;;;;11.79;100.00;101307.44;5023060;28;20438;-75
2022/04/12 09:34:51;;;;;;;6.37;4.30;;;;;;;11.76;100.00;101300.59;5023667;28;20430;-75
2022/04/12 09:37:24;;;;;;;6.10;4.13;;;;;;;11.83;100.00;101284.56;5020880;28;20502;-74
2022/04/12 09:39:59;;;;;;;5.57;4.57;;;;;;;11.93;100.00;101286.91;5021730;28;20909;-76
2022/04/12 09:43:05;;;;;;;6.80;4.40;;;;;;;11.96;100.00;101286.50;5024592;28;20947;-76
2022/04/12 09:45:31;;;;;;;5.30;4.13;;;;;;;12.02;100.00;101282.22;5022815;28;20434;-76
2022/04/12 09:48:08;;;;;;;5.70;4.70;;;;;;;12.07;100.00;101280.59;5023422;28;20491;-75
2022/04/12 09:50:33;;;;;;;4.67;3.90;;;;;;;12.08;100.00;101276.88;5024191;28;21071;-77
2022/04/12 09:53:01;;;;;;;5.90;4.47;;;;;;;12.21;100.00;101270.75;5023829;28;20447;-76
2022/04/12 09:55:46;;;;;;;4.40;4.00;;;;;;;12.15;100.00;101268.81;5024248;28;20197;-75
2022/04/12 09:58:15;;;;;;;5.33;4.33;;;;;;;12.10;100.00;101245.25;5020409;28;20479;-76
2022/04/12 10:00:45;;;;;;;4.77;4.23;;;;;;;12.13;100.00;101230.56;5023314;28;20453;-75
2022/04/12 10:03:18;;;;;;;6.37;5.17;;;;;;;12.34;100.00;101256.53;5021134;28;20500;-75
2022/04/12 10:05:44;;;;;;;4.80;3.90;;;;;;;12.36;100.00;101236.47;5021106;28;20485;-75
2022/04/12 10:08:12;;;;;;;6.30;5.00;;;;;;;12.38;100.00;101244.31;5018351;28;20467;-76
2022/04/12 10:10:40;;;;;;;7.70;4.47;;;;;;;12.31;100.00;101227.34;5024261;28;20481;-76
2022/04/12 10:13:06;;;;;;;7.43;4.43;;;;;;;12.35;100.00;101233.97;5023069;28;20455;-75
2022/04/12 10:15:32;;;;;;;7.60;4.60;;;;;;;12.38;100.00;101220.97;5021417;28;20569;-76
2022/04/12 10:17:57;;;;;;;4.93;4.13;;;;;;;12.36;100.00;101216.81;5027336;22;20650;-74
2022/04/12 10:20:22;;;;;;;6.43;5.00;;;;;;;12.59;100.00;101246.91;5020131;28;20204;-75
2022/04/12 10:22:49;;;;;;;6.47;5.10;;;;;;;12.57;100.00;101240.88;5015064;28;20181;-75
2022/04/12 10:25:21;;;;;;;5.00;4.27;;;;;;;12.73;100.00;101265.75;5022443;28;20613;-76
2022/04/12 10:27:48;;;;;;;7.17;4.30;;;;;;;12.64;100.00;101233.66;5016370;28;20463;-75
2022/04/12 10:30:17;;;;;;;6.63;4.63;;;;;;;12.84;100.00;101263.34;5003268;28;20436;-75
2022/04/12 10:33:06;;;;;;;5.37;4.70;;;;;;;12.95;100.00;101252.97;5003250;28;20440;-74
2022/04/12 10:35:44;;;;;;;6.80;5.37;;;;;;;12.97;100.00;101250.94;5018794;28;20436;-75
2022/04/12 10:38:11;;;;;;;7.60;5.40;;;;;;;12.92;100.00;101232.69;5018290;28;20475;-75
2022/04/12 10:40:36;;;;;;;6.83;5.20;;;;;;;12.91;100.00;101225.66;5001642;28;20872;-73
2022/04/12 10:43:03;;;;;;;5.30;4.70;;;;;;;13.11;100.00;101249.91;5007115;28;20534;-75
2022/04/12 10:45:32;;;;;;;7.70;5.00;;;;;;;12.68;100.00;101182.13;5016218;28;20284;-82
2022/04/12 10:48:00;;;;;;;5.13;4.23;;;;;;;13.01;100.00;101219.84;5005413;28;20448;-83
2022/04/12 10:50:26;;;;;;;5.80;4.83;;;;;;;13.19;100.00;101243.47;5003636;28;20452;-82
2022/04/12 10:52:51;;;;;;;5.83;4.77;;;;;;;13.30;100.00;101241.03;5005768;28;20790;-79
2022/04/12 10:55:25;;;;;;;7.27;4.90;;;;;;;13.30;100.00;101237.50;5003843;28;20655;-83
2022/04/12 10:57:52;;;;;;;5.37;4.37;;;;;;;13.01;100.00;101182.16;5003352;28;20218;-82
2022/04/12 11:00:22;;;;;;;7.90;5.67;;;;;;;12.93;100.00;101168.88;5004440;28;20436;-81
2022/04/12 11:02:55;;;;;;;7.40;5.33;;;;;;;13.40;100.00;101237.94;5002023;28;20502;-83
2022/04/12 11:05:32;;;;;;;7.00;5.03;;;;;;;13.59;100.00;101222.78;5015676;28;20440;-83
2022/04/12 11:07:59;;;;;;;5.93;4.80;;;;;;;12.89;100.00;101133.47;5001075;28;20460;-83
2022/04/12 11:10:24;;;;;;;7.50;5.60;;;;;;;12.85;100.00;101118.78;4999250;28;20444;-82
2022/04/12 11:13:03;;;;;;;8.53;5.27;;;;;;;13.61;100.00;101214.50;5001734;28;20509;-83
2022/04/12 11:15:30;;;;;;;7.30;5.70;;;;;;;13.74;100.00;101215.31;5001236;28;20207;-82
2022/04/12 11:18:10;;;;;;;6.83;5.07;;;;;;;13.58;100.00;101188.78;5000602;28;20486;-78
2022/04/12 11:20:37;;;;;;;6.00;4.77;;;;;;;13.86;100.00;101179.63;4999726;28;20432;-81
2022/04/12 11:23:09;;;;;;;6.43;4.90;;;;;;;14.03;100.00;101194.28;4996785;28;20504;-84